createdAt,value
2018-01-07T00:00:53.002Z,2.87
2018-01-07T00:03:25.722Z,2.87
2018-01-07T00:06:02.778Z,3.05
2018-01-07T00:08:31.834Z,2.96
2018-01-07T00:11:11.942Z,2.99
2018-01-07T00:13:40.984Z,2.81
2018-01-07T00:16:10.045Z,2.77
2018-01-07T00:18:39.095Z,2.86
2018-01-07T00:21:11.525Z,2.87
2018-01-07T00:23:40.570Z,2.80
2018-01-07T00:26:09.615Z,2.68
2018-01-07T00:28:38.646Z,2.69
2018-01-07T00:31:15.178Z,2.74
2018-01-07T00:33:44.217Z,2.65
2018-01-07T00:36:13.265Z,2.61
2018-01-07T00:38:42.325Z,2.73
2018-01-07T00:41:11.405Z,2.73
2018-01-07T00:43:40.433Z,2.93
2018-01-07T00:48:45.655Z,2.97
2018-01-07T00:51:16.673Z,2.92
2018-01-07T00:53:45.722Z,2.84
2018-01-07T00:58:55.825Z,2.75
2018-01-07T01:01:25.858Z,2.47
2018-01-07T01:03:56.914Z,2.36
2018-01-07T01:06:26.861Z,2.39
2018-01-07T01:08:58.998Z,2.60
2018-01-07T01:11:28.056Z,2.54
2018-01-07T01:14:01.909Z,2.45
2018-01-07T01:16:30.954Z,2.39
2018-01-07T01:19:08.800Z,2.49
2018-01-07T01:21:37.842Z,2.37
2018-01-07T01:24:06.889Z,2.39
2018-01-07T01:26:35.954Z,2.30
2018-01-07T01:29:04.998Z,2.33
2018-01-07T01:31:34.050Z,2.48
2018-01-07T01:34:03.186Z,2.31
2018-01-07T01:36:32.211Z,2.29
2018-01-07T01:39:07.223Z,2.17
2018-01-07T01:41:36.242Z,2.20
2018-01-07T01:44:05.277Z,2.33
2018-01-07T01:46:34.374Z,2.06
2018-01-07T01:49:21.333Z,1.91
2018-01-07T01:52:05.568Z,1.88
2018-01-07T01:54:34.706Z,1.93
2018-01-07T01:57:03.767Z,1.65
2018-01-07T01:59:32.814Z,1.53
2018-01-07T02:02:01.855Z,1.34
2018-01-07T02:04:30.899Z,1.33
2018-01-07T02:07:14.930Z,1.15
2018-01-07T02:09:43.980Z,1.11
2018-01-07T02:12:13.050Z,0.99
2018-01-07T02:14:42.106Z,1.10
2018-01-07T02:19:49.299Z,1.15
2018-01-07T02:24:59.516Z,1.00
2018-01-07T02:27:28.635Z,1.02
2018-01-07T02:29:57.676Z,0.89
2018-01-07T02:32:32.494Z,0.97
2018-01-07T02:35:01.533Z,0.93
2018-01-07T02:37:31.530Z,1.12
2018-01-07T02:40:00.592Z,1.21
2018-01-07T02:42:29.675Z,1.25
2018-01-07T02:44:58.717Z,1.19
2018-01-07T02:47:28.737Z,1.29
2018-01-07T02:49:57.786Z,1.24
2018-01-07T02:52:33.089Z,1.36
2018-01-07T02:55:02.107Z,1.33
2018-01-07T02:57:34.458Z,1.38
2018-01-07T03:00:03.508Z,1.46
2018-01-07T03:02:36.860Z,1.52
2018-01-07T03:05:06.218Z,1.55
2018-01-07T03:07:38.951Z,1.58
2018-01-07T03:10:08.019Z,1.49
2018-01-07T03:12:37.079Z,1.65
2018-01-07T03:15:06.134Z,1.69
2018-01-07T03:17:35.164Z,1.80
2018-01-07T03:20:04.207Z,1.74
2018-01-07T03:22:33.276Z,1.73
2018-01-07T03:25:02.358Z,1.62
2018-01-07T03:30:06.585Z,1.78
2018-01-07T03:32:35.618Z,1.74
2018-01-07T03:35:04.662Z,1.77
2018-01-07T03:37:39.192Z,1.79
2018-01-07T03:40:08.247Z,1.72
2018-01-07T03:42:37.286Z,1.79
2018-01-07T03:47:45.422Z,1.92
2018-01-07T03:50:14.490Z,1.81
2018-01-07T03:52:49.267Z,1.92
2018-01-07T03:55:18.310Z,1.80
2018-01-07T04:00:27.210Z,2.04
2018-01-07T04:03:13.134Z,2.05
2018-01-07T04:05:47.797Z,1.90
2018-01-07T04:08:16.813Z,1.98
2018-01-07T04:13:24.003Z,1.90
2018-01-07T04:16:12.782Z,1.91
2018-01-07T04:18:41.832Z,1.75
2018-01-07T04:21:12.785Z,1.72
2018-01-07T04:23:45.967Z,1.60
2018-01-07T04:26:15.915Z,1.74
2018-01-07T04:31:24.035Z,1.61
2018-01-07T04:33:57.011Z,1.59
2018-01-07T04:36:26.098Z,1.77
2018-01-07T04:39:00.385Z,1.77
2018-01-07T04:41:29.429Z,1.89
2018-01-07T04:44:02.366Z,1.74
2018-01-07T04:46:31.414Z,1.81
2018-01-07T04:49:13.534Z,1.95
2018-01-07T04:51:50.085Z,1.76
2018-01-07T04:54:19.122Z,1.77
2018-01-07T04:56:49.078Z,1.76
2018-01-07T04:59:18.192Z,1.68
2018-01-07T05:01:51.186Z,1.83
2018-01-07T05:04:21.127Z,1.72
2018-01-07T05:06:53.900Z,1.78
2018-01-07T05:09:23.850Z,1.90
2018-01-07T05:11:52.909Z,1.76
2018-01-07T05:14:21.949Z,1.90
2018-01-07T05:16:51.045Z,1.90
2018-01-07T05:19:20.066Z,2.06
2018-01-07T05:21:49.131Z,2.13
2018-01-07T05:24:30.645Z,2.17
2018-01-07T05:26:59.709Z,2.23
2018-01-07T05:29:32.759Z,2.07
2018-01-07T05:32:12.519Z,2.10
2018-01-07T05:34:41.574Z,2.00
2018-01-07T05:37:12.584Z,2.15
2018-01-07T05:39:41.657Z,2.25
2018-01-07T05:42:11.673Z,2.11
2018-01-07T05:44:40.721Z,2.18
2018-01-07T05:47:09.834Z,2.13
2018-01-07T05:49:38.874Z,2.12
2018-01-07T05:54:43.134Z,2.32
2018-01-07T05:57:12.338Z,2.17
2018-01-07T05:59:41.394Z,2.16
2018-01-07T06:04:45.695Z,2.14
2018-01-07T06:07:15.666Z,2.09
2018-01-07T06:09:44.710Z,1.97
2018-01-07T06:12:15.348Z,1.96
2018-01-07T06:14:44.473Z,2.09
2018-01-07T06:19:52.932Z,2.20
2018-01-07T06:22:21.982Z,2.07
2018-01-07T06:24:51.034Z,2.15
2018-01-07T06:27:20.133Z,2.22
2018-01-07T06:29:49.146Z,2.11
2018-01-07T06:32:23.370Z,2.13
2018-01-07T06:34:53.314Z,2.01
2018-01-07T06:37:44.759Z,2.13
2018-01-07T06:42:51.998Z,2.17
2018-01-07T06:45:21.053Z,2.02
2018-01-07T06:47:50.129Z,2.15
2018-01-07T06:50:20.083Z,2.12
2018-01-07T06:52:53.342Z,2.31
2018-01-07T06:58:01.585Z,2.40
2018-01-07T07:00:30.705Z,2.48
2018-01-07T07:02:59.688Z,2.35
2018-01-07T07:05:28.723Z,2.44
2018-01-07T07:07:57.766Z,2.40
2018-01-07T07:10:28.769Z,2.48
2018-01-07T07:12:57.825Z,2.41
2018-01-07T07:15:32.297Z,2.56
2018-01-07T07:18:01.327Z,2.47
2018-01-07T07:20:30.370Z,2.49
2018-01-07T07:22:59.412Z,2.40
2018-01-07T07:25:29.367Z,2.56
2018-01-07T07:27:58.402Z,2.49
2018-01-07T07:30:32.353Z,2.60
2018-01-07T07:33:01.406Z,2.57
2018-01-07T07:35:31.422Z,2.66
2018-01-07T07:38:00.480Z,2.63
2018-01-07T07:40:29.530Z,2.77
2018-01-07T07:42:58.569Z,2.70
2018-01-07T07:45:27.618Z,2.80
2018-01-07T07:47:57.562Z,2.74
2018-01-07T07:50:44.172Z,2.88
2018-01-07T07:53:21.544Z,2.84
2018-01-07T07:55:53.535Z,2.94
2018-01-07T07:58:33.419Z,2.79
2018-01-07T08:01:02.475Z,2.92
2018-01-07T08:03:31.517Z,2.88
2018-01-07T08:06:00.572Z,3.10
2018-01-07T08:08:29.605Z,3.16
2018-01-07T08:10:58.642Z,3.33
2018-01-07T08:13:27.686Z,3.45
2018-01-07T08:15:56.726Z,3.39
2018-01-07T08:18:31.108Z,3.56
2018-01-07T08:21:08.033Z,3.52
2018-01-07T08:23:49.969Z,3.40
2018-01-07T08:26:19.025Z,3.28
2018-01-07T08:29:04.272Z,3.63
2018-01-07T08:31:33.289Z,3.59
2018-01-07T08:34:03.275Z,3.76
2018-01-07T08:36:32.333Z,3.71
2018-01-07T08:39:05.726Z,3.79
2018-01-07T08:41:35.740Z,3.71
2018-01-07T08:44:12.214Z,3.84
2018-01-07T08:46:42.217Z,3.78
2018-01-07T08:49:14.890Z,3.95
2018-01-07T08:51:43.950Z,4.05
2018-01-07T08:54:12.996Z,4.02
2018-01-07T08:56:42.153Z,3.60
2018-01-07T08:59:14.362Z,3.53
2018-01-07T09:01:49.432Z,3.71
2018-01-07T09:04:18.453Z,3.93
2018-01-07T09:06:47.510Z,4.04
2018-01-07T09:09:16.538Z,3.99
2018-01-07T09:11:48.782Z,4.06
2018-01-07T09:14:17.836Z,4.19
2018-01-07T09:16:46.862Z,4.32
2018-01-07T09:19:15.928Z,4.35
2018-01-07T09:21:44.942Z,4.38
2018-01-07T09:24:17.215Z,4.29
2018-01-07T09:26:46.238Z,4.38
2018-01-07T09:29:19.002Z,4.38
2018-01-07T09:31:48.957Z,4.44
2018-01-07T09:34:21.302Z,4.53
2018-01-07T09:36:50.383Z,4.50
2018-01-07T09:39:19.393Z,4.53
2018-01-07T09:41:48.450Z,4.59
2018-01-07T09:44:19.429Z,4.56
2018-01-07T09:46:48.477Z,4.67
2018-01-07T09:49:31.524Z,4.81
2018-01-07T09:54:40.670Z,5.24
2018-01-07T09:57:10.613Z,5.09
2018-01-07T09:59:39.667Z,5.21
2018-01-07T10:04:44.389Z,5.15
2018-01-07T10:07:15.351Z,5.05
2018-01-07T10:09:45.305Z,5.25
2018-01-07T10:14:50.646Z,5.60
2018-01-07T10:17:38.710Z,5.33
2018-01-07T10:20:08.754Z,5.29
2018-01-07T10:22:37.794Z,5.12
2018-01-07T10:25:15.527Z,4.91
2018-01-07T10:27:44.589Z,5.06
2018-01-07T10:30:13.624Z,5.05
2018-01-07T10:37:53.178Z,5.35
2018-01-07T10:40:30.315Z,5.33
2018-01-07T10:42:59.364Z,5.11
2018-01-07T10:45:28.423Z,5.04
2018-01-07T10:47:57.458Z,5.13
2018-01-07T10:53:15.763Z,5.17
2018-01-07T10:55:44.803Z,4.53
2018-01-07T10:58:15.804Z,4.76
2018-01-07T11:00:50.327Z,5.01
2018-01-07T11:03:19.390Z,5.00
2018-01-07T11:05:53.842Z,5.09
2018-01-07T11:08:22.890Z,5.07
2018-01-07T11:11:00.433Z,5.08
2018-01-07T11:13:37.181Z,5.18
2018-01-07T11:16:06.254Z,5.01
2018-01-07T11:18:37.222Z,5.15
2018-01-07T11:21:06.275Z,4.99
2018-01-07T11:23:35.345Z,4.94
2018-01-07T11:26:04.378Z,4.81
2018-01-07T11:28:33.438Z,4.92
2018-01-07T11:31:03.432Z,5.03
2018-01-07T11:33:32.469Z,4.92
2018-01-07T11:36:03.410Z,5.00
2018-01-07T11:38:32.450Z,5.05
2018-01-07T11:41:03.444Z,5.10
2018-01-07T11:43:37.064Z,5.07
2018-01-07T11:46:06.093Z,5.03
2018-01-07T11:48:52.671Z,5.16
2018-01-07T11:51:21.718Z,5.09
2018-01-07T11:56:27.437Z,5.29
2018-01-07T11:59:03.891Z,5.39
2018-01-07T12:01:33.936Z,5.37
2018-01-07T12:04:03.011Z,5.19
2018-01-07T12:06:35.374Z,5.22
2018-01-07T12:09:04.414Z,5.09
2018-01-07T12:14:08.638Z,5.34
2018-01-07T12:19:12.965Z,5.24
2018-01-07T12:21:41.978Z,5.28
2018-01-07T12:24:11.028Z,5.28
2018-01-07T12:29:15.306Z,5.34
2018-01-07T12:31:47.653Z,5.17
2018-01-07T12:34:16.702Z,5.04
2018-01-07T12:36:45.775Z,5.16
2018-01-07T12:39:16.837Z,5.06
2018-01-07T12:41:45.869Z,4.92
2018-01-07T12:44:14.921Z,5.02
2018-01-07T12:46:43.958Z,5.06
2018-01-07T12:49:21.282Z,5.09
2018-01-07T12:51:55.103Z,5.18
2018-01-07T12:54:28.864Z,5.03
2018-01-07T12:59:33.070Z,5.24
2018-01-07T13:04:37.803Z,5.08
2018-01-07T13:07:14.383Z,5.00
2018-01-07T13:09:43.423Z,4.97
2018-01-07T13:12:12.494Z,5.05
2018-01-07T13:14:42.626Z,5.26
2018-01-07T13:17:14.847Z,5.18
2018-01-07T13:19:43.898Z,5.05
2018-01-07T13:22:17.356Z,5.21
2018-01-07T13:24:50.146Z,5.10
2018-01-07T13:27:25.038Z,5.10
2018-01-07T13:32:31.381Z,5.42
2018-01-07T13:35:04.126Z,5.39
2018-01-07T13:37:34.483Z,5.34
2018-01-07T13:40:26.515Z,5.43
2018-01-07T13:42:59.663Z,5.23
2018-01-07T13:45:28.747Z,5.07
2018-01-07T13:48:02.882Z,4.71
2018-01-07T13:50:32.430Z,4.94
2018-01-07T13:53:13.153Z,5.01
2018-01-07T13:55:46.701Z,4.58
2018-01-07T13:58:18.340Z,4.67
2018-01-07T14:00:55.620Z,4.96
2018-01-07T14:03:26.569Z,4.80
2018-01-07T14:05:58.639Z,4.70
2018-01-07T14:08:39.398Z,4.78
2018-01-07T14:11:08.438Z,4.81
2018-01-07T14:13:37.473Z,4.88
2018-01-07T14:16:07.284Z,4.98
2018-01-07T14:18:42.335Z,5.00
2018-01-07T14:23:46.659Z,5.10
2018-01-07T14:26:16.605Z,4.79
2018-01-07T14:28:45.650Z,4.82
2018-01-07T14:31:15.198Z,4.88
2018-01-07T14:33:44.285Z,4.90
2018-01-07T14:36:13.423Z,4.72
2018-01-07T14:38:43.111Z,4.81
2018-01-07T14:41:12.292Z,4.95
2018-01-07T14:43:41.334Z,5.00
2018-01-07T14:46:20.102Z,5.08
2018-01-07T14:48:53.494Z,4.97
2018-01-07T14:51:24.652Z,4.89
2018-01-07T14:53:57.656Z,5.05
2018-01-07T14:56:26.773Z,5.04
2018-01-07T14:58:55.863Z,4.98
2018-01-07T15:01:25.126Z,5.02
2018-01-07T15:03:54.173Z,5.18
2018-01-07T15:06:34.140Z,4.94
2018-01-07T15:09:07.604Z,4.98
2018-01-07T15:11:36.712Z,5.00
2018-01-07T15:14:14.303Z,5.00
2018-01-07T15:16:44.287Z,5.01
2018-01-07T15:21:49.026Z,5.02
2018-01-07T15:24:18.874Z,4.84
2018-01-07T15:26:47.886Z,4.88
2018-01-07T15:29:17.038Z,4.95
2018-01-07T15:34:21.468Z,5.05
2018-01-07T15:36:55.969Z,4.98
2018-01-07T15:39:25.124Z,5.02
2018-01-07T15:41:55.182Z,5.00
2018-01-07T15:44:29.453Z,5.02
2018-01-07T15:46:58.589Z,4.89
2018-01-07T15:49:27.716Z,4.88
2018-01-07T15:51:59.619Z,4.81
2018-01-07T15:54:28.663Z,4.72
2018-01-07T15:56:57.713Z,4.72
2018-01-07T15:59:29.212Z,4.74
2018-01-07T16:04:37.445Z,4.75
2018-01-07T16:07:07.416Z,4.63
2018-01-07T16:12:12.806Z,4.75
2018-01-07T16:14:53.251Z,4.74
2018-01-07T16:17:24.344Z,4.64
2018-01-07T16:19:55.284Z,4.68
2018-01-07T16:22:27.323Z,4.69
2018-01-07T16:24:56.356Z,4.62
2018-01-07T16:27:25.404Z,4.54
2018-01-07T16:32:30.655Z,4.72
2018-01-07T16:35:07.477Z,4.71
2018-01-07T16:37:50.250Z,4.81
2018-01-07T16:40:19.658Z,4.61
2018-01-07T16:43:10.874Z,4.67
2018-01-07T16:45:39.971Z,4.58
2018-01-07T16:48:11.046Z,4.53
2018-01-07T16:50:40.673Z,4.60
2018-01-07T16:53:09.712Z,4.38
2018-01-07T16:55:38.750Z,4.52
2018-01-07T16:58:12.383Z,4.53
2018-01-07T17:00:41.510Z,4.58
2018-01-07T17:05:48.067Z,4.83
2018-01-07T17:08:20.354Z,4.95
2018-01-07T17:10:49.833Z,4.90
2018-01-07T17:13:19.401Z,4.84
2018-01-07T17:15:48.938Z,4.83
2018-01-07T17:28:44.648Z,5.15
2018-01-07T17:31:20.842Z,5.14
2018-01-07T17:33:50.392Z,5.07
2018-01-07T17:36:27.730Z,5.14
2018-01-07T17:38:56.773Z,5.24
2018-01-07T17:41:28.790Z,5.21
2018-01-07T17:43:57.900Z,5.20
2018-01-07T17:51:40.249Z,5.50
2018-01-07T17:54:09.306Z,5.35
2018-01-07T17:56:38.372Z,5.31
2018-01-07T17:59:08.302Z,5.28
2018-01-07T18:04:15.676Z,5.61
2018-01-07T18:09:33.822Z,5.73
2018-01-07T18:12:02.875Z,5.59
2018-01-07T18:14:36.267Z,5.52
2018-01-07T18:17:05.522Z,5.55
2018-01-07T18:19:35.487Z,5.51
2018-01-07T18:22:04.925Z,5.49
2018-01-07T18:24:34.865Z,5.53
2018-01-07T18:27:03.932Z,5.43
2018-01-07T18:29:43.564Z,5.50
2018-01-07T18:32:13.078Z,5.56
2018-01-07T18:34:43.461Z,5.80
2018-01-07T18:37:13.526Z,5.74
2018-01-07T18:39:43.605Z,5.84
2018-01-07T18:42:13.810Z,5.73
2018-01-07T18:44:52.723Z,5.73
2018-01-07T18:47:27.133Z,5.62
2018-01-07T18:49:57.166Z,5.61
2018-01-07T18:55:01.948Z,5.95
2018-01-07T19:00:07.484Z,6.03
2018-01-07T19:02:48.479Z,5.99
2018-01-07T19:05:19.270Z,5.99
2018-01-07T19:07:51.809Z,5.99
2018-01-07T19:15:38.656Z,6.13
2018-01-07T19:18:08.384Z,6.09
2018-01-07T19:20:41.152Z,6.04
2018-01-07T19:23:10.252Z,6.19
2018-01-07T19:25:39.384Z,6.14
2018-01-07T19:28:08.577Z,6.02
2018-01-07T19:30:39.148Z,5.99
2018-01-07T19:33:08.690Z,6.12
2018-01-07T19:35:37.971Z,6.31
2018-01-07T19:38:17.187Z,6.23
2018-01-07T19:40:47.634Z,6.28
2018-01-07T19:43:17.702Z,6.24
2018-01-07T19:45:48.120Z,6.21
2018-01-07T19:48:17.194Z,6.25
2018-01-07T19:50:53.717Z,6.28
2018-01-07T19:53:22.758Z,6.28
2018-01-07T19:55:57.528Z,6.17
2018-01-07T19:58:26.806Z,6.31
2018-01-07T20:03:31.264Z,6.50
2018-01-07T20:08:35.746Z,6.35
2018-01-07T20:11:10.363Z,6.29
2018-01-07T20:13:39.640Z,6.26
2018-01-07T20:16:20.100Z,6.22
2018-01-07T20:18:51.525Z,6.17
2018-01-07T20:21:21.070Z,6.21
2018-01-07T20:23:51.594Z,6.26
2018-01-07T20:26:20.861Z,6.30
2018-01-07T20:28:51.991Z,6.38
2018-01-07T20:31:22.089Z,6.29
2018-01-07T20:33:53.318Z,6.29
2018-01-07T20:36:30.214Z,6.24
2018-01-07T20:39:00.521Z,6.26
2018-01-07T20:41:31.868Z,6.32
2018-01-07T20:44:07.872Z,6.34
2018-01-07T20:46:37.038Z,6.37
2018-01-07T20:49:08.468Z,6.40
2018-01-07T20:51:40.057Z,6.30
2018-01-07T20:59:26.668Z,6.55
2018-01-07T21:04:32.411Z,6.38
2018-01-07T21:07:04.260Z,6.21
2018-01-07T21:09:35.484Z,6.26
2018-01-07T21:14:42.169Z,6.29
2018-01-07T21:17:11.485Z,6.25
2018-01-07T21:19:42.825Z,6.25
2018-01-07T21:22:22.738Z,6.21
2018-01-07T21:24:51.792Z,6.29
2018-01-07T21:27:20.818Z,6.24
2018-01-07T21:29:50.894Z,6.23
2018-01-07T21:32:19.959Z,6.36
2018-01-07T21:34:48.998Z,6.17
2018-01-07T21:37:18.943Z,6.24
2018-01-07T21:39:47.974Z,6.29
2018-01-07T21:42:17.227Z,6.21
2018-01-07T21:44:47.494Z,6.37
2018-01-07T21:47:30.552Z,6.41
2018-01-07T21:50:00.983Z,6.27
2018-01-07T21:55:05.812Z,6.26
2018-01-07T22:03:24.045Z,6.58
2018-01-07T22:06:02.115Z,6.45
2018-01-07T22:08:31.191Z,6.42
2018-01-07T22:11:00.388Z,6.30
2018-01-07T22:13:32.986Z,6.32
2018-01-07T22:16:02.241Z,6.45
2018-01-07T22:18:39.334Z,6.46
2018-01-07T22:21:22.796Z,6.55
2018-01-07T22:23:52.945Z,6.48
2018-01-07T22:26:32.760Z,6.44
2018-01-07T22:29:01.804Z,6.46
2018-01-07T22:31:35.250Z,6.41
2018-01-07T22:34:04.458Z,6.36
2018-01-07T22:36:47.627Z,6.41
2018-01-07T22:39:16.802Z,6.38
2018-01-07T22:42:01.230Z,6.37
2018-01-07T22:44:35.586Z,6.39
2018-01-07T22:47:04.636Z,6.42
2018-01-07T22:49:33.667Z,6.44
2018-01-07T22:52:03.674Z,6.35
2018-01-07T22:54:33.710Z,6.28
2018-01-07T22:57:02.748Z,6.28
2018-01-07T22:59:31.816Z,6.25
2018-01-07T23:02:00.843Z,6.23
2018-01-07T23:04:35.071Z,6.20
2018-01-07T23:07:04.102Z,6.25
2018-01-07T23:09:46.528Z,6.32
2018-01-07T23:12:15.546Z,6.25
2018-01-07T23:14:47.663Z,6.29
2018-01-07T23:17:24.469Z,6.32
2018-01-07T23:19:57.298Z,6.31
2018-01-07T23:22:26.343Z,6.33
2018-01-07T23:24:55.405Z,6.28
2018-01-07T23:27:30.041Z,6.25
2018-01-07T23:29:59.095Z,6.18
2018-01-07T23:32:41.142Z,6.12
2018-01-07T23:35:10.211Z,6.00
2018-01-07T23:37:39.253Z,6.04
2018-01-07T23:40:08.896Z,6.13
2018-01-07T23:42:37.907Z,6.09
2018-01-07T23:45:06.952Z,6.09
2018-01-07T23:47:36.067Z,6.20
2018-01-07T23:50:05.086Z,6.26
2018-01-07T23:52:34.120Z,6.23
2018-01-07T23:55:08.171Z,6.35
2018-01-07T23:57:37.310Z,6.34
